createdAt,value
2023-02-19T00:01:28.333Z,100319.05
2023-02-19T00:03:57.505Z,100312.74
2023-02-19T00:06:26.795Z,100315.55
2023-02-19T00:08:53.810Z,100314.32
2023-02-19T00:11:22.946Z,100312.58
2023-02-19T00:13:52.810Z,100311.37
2023-02-19T00:16:22.992Z,100309.63
2023-02-19T00:18:50.245Z,100315.27
2023-02-19T00:21:17.739Z,100314.72
2023-02-19T00:23:48.011Z,100321.56
2023-02-19T00:26:18.670Z,100323.86
2023-02-19T00:28:46.964Z,100324.58
2023-02-19T00:31:22.543Z,100321.96
2023-02-19T00:33:51.076Z,100315.29
2023-02-19T00:36:17.873Z,100317.75
2023-02-19T00:38:44.792Z,100320.56
2023-02-19T00:41:12.977Z,100321.80
2023-02-19T00:43:39.411Z,100319.70
2023-02-19T00:46:05.975Z,100321.80
2023-02-19T00:48:32.475Z,100324.60
2023-02-19T00:50:58.979Z,100325.13
2023-02-19T00:53:25.468Z,100319.86
2023-02-19T00:55:51.914Z,100316.88
2023-02-19T00:58:18.438Z,100319.87
2023-02-19T01:00:44.923Z,100326.17
2023-02-19T01:03:11.375Z,100325.99
2023-02-19T01:05:37.865Z,100325.12
2023-02-19T01:08:04.539Z,100327.23
2023-02-19T01:10:31.019Z,100329.85
2023-02-19T01:12:57.530Z,100325.29
2023-02-19T01:15:24.043Z,100318.64
2023-02-19T01:17:50.505Z,100313.36
2023-02-19T01:20:17.187Z,100315.48
2023-02-19T01:22:43.649Z,100312.48
2023-02-19T01:25:10.170Z,100317.23
2023-02-19T01:27:36.640Z,100310.04
2023-02-19T01:30:03.361Z,100316.54
2023-02-19T01:32:29.824Z,100314.09
2023-02-19T01:34:56.277Z,100315.66
2023-02-19T01:37:22.711Z,100315.66
2023-02-19T01:39:49.181Z,100315.33
2023-02-19T01:42:17.134Z,100321.83
2023-02-19T01:44:43.545Z,100318.16
2023-02-19T01:47:09.998Z,100322.20
2023-02-19T01:49:43.790Z,100324.68
2023-02-19T01:52:21.337Z,100319.80
2023-02-19T01:54:48.884Z,100315.59
2023-02-19T01:57:21.961Z,100317.72
2023-02-19T01:59:54.531Z,100313.68
2023-02-19T02:02:22.370Z,100312.99
2023-02-19T02:04:48.904Z,100312.13
2023-02-19T02:07:16.212Z,100306.88
2023-02-19T02:09:42.694Z,100306.89
2023-02-19T02:12:09.305Z,100298.66
2023-02-19T02:14:38.912Z,100296.56
2023-02-19T02:17:25.398Z,100298.84
2023-02-19T02:20:07.062Z,100299.71
2023-02-19T02:22:38.055Z,100307.41
2023-02-19T02:25:46.347Z,100315.13
2023-02-19T02:28:31.138Z,100302.88
2023-02-19T02:31:10.054Z,100285.87
2023-02-19T02:33:44.701Z,100283.27
2023-02-19T02:36:27.050Z,100295.88
2023-02-19T02:38:55.447Z,100286.59
2023-02-19T02:41:22.454Z,100286.44
2023-02-19T02:43:49.065Z,100284.86
2023-02-19T02:46:22.911Z,100285.04
2023-02-19T02:48:57.121Z,100280.47
2023-02-19T02:51:31.977Z,100284.67
2023-02-19T02:54:04.426Z,100288.17
2023-02-19T02:56:31.265Z,100290.27
2023-02-19T02:59:02.594Z,100286.77
2023-02-19T03:01:35.024Z,100289.91
2023-02-19T03:04:06.597Z,100289.38
2023-02-19T03:06:34.548Z,100296.04
2023-02-19T03:09:16.575Z,100300.58
2023-02-19T03:11:48.412Z,100299.70
2023-02-19T03:14:30.591Z,100302.33
2023-02-19T03:17:03.740Z,100297.60
2023-02-19T03:19:35.351Z,100294.63
2023-02-19T03:22:06.214Z,100297.08
2023-02-19T03:24:35.568Z,100296.21
2023-02-19T03:27:05.096Z,100290.95
2023-02-19T03:29:34.492Z,100291.48
2023-02-19T03:32:06.976Z,100293.42
2023-02-19T03:34:41.611Z,100301.83
2023-02-19T03:37:25.276Z,100308.31
2023-02-19T03:39:53.925Z,100305.69
2023-02-19T03:42:44.667Z,100304.46
2023-02-19T03:45:30.865Z,100291.69
2023-02-19T03:48:21.093Z,100286.61
2023-02-19T03:50:58.712Z,100293.45
2023-02-19T03:53:51.975Z,100293.81
2023-02-19T03:56:52.347Z,100292.58
2023-02-19T04:00:03.515Z,100299.23
2023-02-19T04:02:35.989Z,100294.52
2023-02-19T04:05:14.044Z,100291.37
2023-02-19T04:07:45.200Z,100292.07
2023-02-19T04:10:14.203Z,100286.81
2023-02-19T04:12:46.267Z,100288.57
2023-02-19T04:15:18.814Z,100296.11
2023-02-19T04:17:59.021Z,100291.38
2023-02-19T04:20:29.868Z,100288.92
2023-02-19T04:22:57.323Z,100291.73
2023-02-19T04:25:26.491Z,100287.17
2023-02-19T04:27:53.210Z,100289.62
2023-02-19T04:30:19.710Z,100283.50
2023-02-19T04:32:46.203Z,100280.51
2023-02-19T04:35:12.706Z,100280.86
2023-02-19T04:37:39.233Z,100279.11
2023-02-19T04:40:06.097Z,100279.29
2023-02-19T04:42:32.666Z,100280.15
2023-02-19T04:44:59.223Z,100283.14
2023-02-19T04:47:25.708Z,100278.77
2023-02-19T04:49:52.187Z,100283.84
2023-02-19T04:52:18.655Z,100283.66
2023-02-19T04:54:45.144Z,100285.78
2023-02-19T04:57:11.713Z,100293.27
2023-02-19T04:59:38.206Z,100302.21
2023-02-19T05:02:04.702Z,100299.04
2023-02-19T05:04:31.339Z,100295.89
2023-02-19T05:06:57.880Z,100290.98
2023-02-19T05:09:24.417Z,100298.04
2023-02-19T05:11:50.901Z,100295.74
2023-02-19T05:14:17.396Z,100303.29
2023-02-19T05:16:43.885Z,100305.73
2023-02-19T05:19:13.608Z,100305.02
2023-02-19T05:21:40.164Z,100306.27
2023-02-19T05:24:07.198Z,100299.39
2023-02-19T05:26:34.116Z,100304.12
2023-02-19T05:29:00.905Z,100309.20
2023-02-19T05:31:27.462Z,100315.34
2023-02-19T05:33:56.762Z,100306.23
2023-02-19T05:36:23.489Z,100302.91
2023-02-19T05:38:57.437Z,100305.00
2023-02-19T05:41:29.116Z,100300.98
2023-02-19T05:43:56.983Z,100295.19
2023-02-19T05:46:27.300Z,100298.35
2023-02-19T05:48:54.370Z,100290.66
2023-02-19T05:51:23.740Z,100293.45
2023-02-19T05:53:50.699Z,100308.16
2023-02-19T05:56:23.070Z,100309.02
2023-02-19T05:58:49.885Z,100307.28
2023-02-19T06:01:17.894Z,100309.20
2023-02-19T06:03:44.422Z,100305.34
2023-02-19T06:06:14.390Z,100314.29
2023-02-19T06:08:40.943Z,100321.46
2023-02-19T06:11:07.495Z,100317.42
2023-02-19T06:13:34.071Z,100317.77
2023-02-19T06:16:04.306Z,100319.00
2023-02-19T06:18:30.904Z,100320.56
2023-02-19T06:21:02.293Z,100321.96
2023-02-19T06:23:29.560Z,100316.88
2023-02-19T06:26:05.566Z,100314.09
2023-02-19T06:28:32.043Z,100312.84
2023-02-19T06:30:59.209Z,100307.93
2023-02-19T06:33:26.986Z,100304.08
2023-02-19T06:35:53.991Z,100304.23
2023-02-19T06:38:23.695Z,100304.05
2023-02-19T06:40:50.177Z,100303.86
2023-02-19T06:43:16.740Z,100303.67
2023-02-19T06:45:43.335Z,100300.87
2023-02-19T06:48:09.810Z,100293.85
2023-02-19T06:50:36.297Z,100293.84
2023-02-19T06:53:02.842Z,100298.54
2023-02-19T06:55:29.311Z,100300.63
2023-02-19T06:57:55.786Z,100303.92
2023-02-19T07:00:22.394Z,100310.02
2023-02-19T07:02:48.870Z,100303.17
2023-02-19T07:05:15.402Z,100301.07
2023-02-19T07:07:41.859Z,100289.35
2023-02-19T07:10:08.371Z,100290.37
2023-02-19T07:12:34.822Z,100305.19
2023-02-19T07:15:01.291Z,100310.05
2023-02-19T07:17:27.774Z,100311.61
2023-02-19T07:19:54.302Z,100313.36
2023-02-19T07:22:21.078Z,100311.42
2023-02-19T07:24:48.041Z,100315.09
2023-02-19T07:27:14.571Z,100306.87
2023-02-19T07:29:41.044Z,100311.02
2023-02-19T07:32:07.615Z,100303.50
2023-02-19T07:34:34.200Z,100301.03
2023-02-19T07:37:00.699Z,100300.65
2023-02-19T07:39:27.252Z,100299.94
2023-02-19T07:41:53.753Z,100293.80
2023-02-19T07:44:20.216Z,100289.42
2023-02-19T07:46:46.699Z,100284.88
2023-02-19T07:49:13.183Z,100281.02
2023-02-19T07:51:39.658Z,100280.52
2023-02-19T07:54:06.145Z,100280.73
2023-02-19T07:56:32.623Z,100282.31
2023-02-19T07:59:00.321Z,100284.79
2023-02-19T08:01:26.856Z,100295.63
2023-02-19T08:03:53.401Z,100301.43
2023-02-19T08:06:19.867Z,100297.97
2023-02-19T08:08:46.318Z,100307.23
2023-02-19T08:11:12.935Z,100311.44
2023-02-19T08:13:39.554Z,100311.81
2023-02-19T08:16:20.053Z,100317.92
2023-02-19T08:18:50.952Z,100327.02
2023-02-19T08:21:17.458Z,100325.96
2023-02-19T08:23:44.320Z,100323.52
2023-02-19T08:26:10.930Z,100322.66
2023-02-19T08:28:37.396Z,100329.99
2023-02-19T08:31:06.961Z,100331.40
2023-02-19T08:33:33.513Z,100338.73
2023-02-19T08:36:08.259Z,100341.54
2023-02-19T08:38:36.419Z,100343.29
2023-02-19T08:41:08.530Z,100342.77
2023-02-19T08:43:35.444Z,100334.94
2023-02-19T08:46:02.657Z,100327.27
2023-02-19T08:48:29.240Z,100327.83
2023-02-19T08:51:05.184Z,100324.36
2023-02-19T08:53:32.728Z,100323.33
2023-02-19T08:55:59.303Z,100317.55
2023-02-19T08:58:25.799Z,100318.07
2023-02-19T09:00:52.783Z,100318.40
2023-02-19T09:03:19.372Z,100322.25
2023-02-19T09:05:45.974Z,100316.29
2023-02-19T09:08:12.529Z,100322.95
2023-02-19T09:10:39.668Z,100322.77
2023-02-19T09:13:06.185Z,100319.11
2023-02-19T09:15:32.779Z,100321.02
2023-02-19T09:18:02.873Z,100322.93
2023-02-19T09:20:30.248Z,100317.52
2023-02-19T09:22:58.009Z,100320.33
2023-02-19T09:25:25.148Z,100308.45
2023-02-19T09:27:55.099Z,100304.95
2023-02-19T09:30:21.588Z,100308.26
2023-02-19T09:32:48.101Z,100307.89
2023-02-19T09:35:14.686Z,100308.07
2023-02-19T09:37:41.189Z,100307.23
2023-02-19T09:40:09.020Z,100298.31
2023-02-19T09:42:35.599Z,100294.66
2023-02-19T09:45:04.853Z,100292.76
2023-02-19T09:47:33.663Z,100290.13
2023-02-19T09:50:08.904Z,100290.67
2023-02-19T09:52:58.441Z,100288.59
2023-02-19T09:55:34.659Z,100288.96
2023-02-19T09:58:08.393Z,100287.05
2023-02-19T10:00:36.912Z,100285.85
2023-02-19T10:03:31.287Z,100283.60
2023-02-19T10:06:01.009Z,100275.56
2023-02-19T10:08:27.674Z,100268.58
2023-02-19T10:10:54.645Z,100258.61
2023-02-19T10:13:24.130Z,100255.29
2023-02-19T10:15:54.161Z,100248.27
2023-02-19T10:18:23.877Z,100234.23
2023-02-19T10:20:52.483Z,100220.46
2023-02-19T10:23:19.466Z,100207.51
2023-02-19T10:25:57.818Z,100210.43
2023-02-19T10:28:28.774Z,100209.08
2023-02-19T10:30:58.918Z,100200.34
2023-02-19T10:33:26.255Z,100193.09
2023-02-19T10:36:02.352Z,100182.64
2023-02-19T10:38:38.659Z,100176.84
2023-02-19T10:41:15.343Z,100175.48
2023-02-19T10:43:51.160Z,100176.92
2023-02-19T10:46:31.362Z,100174.00
2023-02-19T10:49:04.653Z,100174.92
2023-02-19T10:51:35.415Z,100165.45
2023-02-19T10:54:04.806Z,100156.46
2023-02-19T10:56:31.305Z,100151.31
2023-02-19T10:59:26.515Z,100149.30
2023-02-19T11:01:58.746Z,100135.92
2023-02-19T11:04:27.952Z,100132.98
2023-02-19T11:06:54.767Z,100123.15
2023-02-19T11:09:26.616Z,100113.91
2023-02-19T11:11:54.412Z,100110.80
2023-02-19T11:14:24.193Z,100097.31
2023-02-19T11:16:54.527Z,100090.47
2023-02-19T11:19:29.115Z,100093.35
2023-02-19T11:21:57.057Z,100099.73
2023-02-19T11:24:32.261Z,100097.37
2023-02-19T11:26:58.956Z,100096.52
2023-02-19T11:29:25.534Z,100080.12
2023-02-19T11:31:52.089Z,100092.64
2023-02-19T11:34:18.508Z,100076.45
2023-02-19T11:36:44.985Z,100079.50
2023-02-19T11:39:17.576Z,100071.70
2023-02-19T11:41:56.238Z,100050.79
2023-02-19T11:44:47.472Z,100058.25
2023-02-19T11:47:56.977Z,100064.46
2023-02-19T11:50:41.958Z,100058.13
2023-02-19T11:53:14.426Z,100058.16
2023-02-19T11:55:46.535Z,100064.15
2023-02-19T11:58:34.781Z,100059.00
2023-02-19T12:01:10.457Z,100057.34
2023-02-19T12:03:59.022Z,100059.15
2023-02-19T12:06:52.868Z,100059.74
2023-02-19T12:09:45.090Z,100059.12
2023-02-19T12:12:14.711Z,100051.95
2023-02-19T12:14:43.894Z,100055.70
2023-02-19T12:17:41.676Z,100058.86
2023-02-19T12:20:20.296Z,100063.02
2023-02-19T12:23:23.412Z,100071.58
2023-02-19T12:25:52.571Z,100073.27
2023-02-19T12:28:25.138Z,100070.98
2023-02-19T12:31:33.518Z,100058.84
2023-02-19T12:34:37.381Z,100058.07
2023-02-19T12:37:22.731Z,100065.00
2023-02-19T12:40:26.654Z,100062.14
2023-02-19T12:43:02.027Z,100064.96
2023-02-19T12:45:40.898Z,100075.02
2023-02-19T12:48:27.575Z,100070.09
2023-02-19T12:51:02.686Z,100071.97
2023-02-19T12:53:31.876Z,100083.53
2023-02-19T12:56:01.186Z,100082.70
2023-02-19T12:58:39.588Z,100090.02
2023-02-19T13:01:11.213Z,100095.62
2023-02-19T13:03:50.164Z,100095.30
2023-02-19T13:06:36.341Z,100099.50
2023-02-19T13:09:07.766Z,100104.10
2023-02-19T13:11:41.953Z,100097.82
2023-02-19T13:14:43.384Z,100086.95
2023-02-19T13:17:41.445Z,100091.31
2023-02-19T13:20:19.929Z,100093.89
2023-02-19T13:22:59.946Z,100085.38
2023-02-19T13:25:48.351Z,100090.64
2023-02-19T13:28:31.934Z,100089.65
2023-02-19T13:31:17.273Z,100091.70
2023-02-19T13:34:26.365Z,100095.30
2023-02-19T13:36:54.421Z,100091.38
2023-02-19T13:39:22.509Z,100090.81
2023-02-19T13:41:51.796Z,100089.36
2023-02-19T13:44:21.769Z,100092.46
2023-02-19T13:46:50.227Z,100084.45
2023-02-19T13:49:22.803Z,100092.88
2023-02-19T13:52:01.895Z,100112.81
2023-02-19T13:54:30.554Z,100118.36
2023-02-19T13:57:29.218Z,100110.50
2023-02-19T13:59:57.652Z,100114.16
2023-02-19T14:02:33.640Z,100121.63
2023-02-19T14:05:10.175Z,100128.93
2023-02-19T14:07:52.895Z,100133.25
2023-02-19T14:10:50.722Z,100134.20
2023-02-19T14:13:51.626Z,100135.58
2023-02-19T14:16:36.337Z,100142.81
2023-02-19T14:19:02.850Z,100155.89
2023-02-19T14:21:38.741Z,100162.08
2023-02-19T14:24:10.123Z,100162.65
2023-02-19T14:26:36.846Z,100170.23
2023-02-19T14:29:08.000Z,100182.34
2023-02-19T14:31:38.291Z,100186.74
2023-02-19T14:34:06.189Z,100186.21
2023-02-19T14:36:42.276Z,100185.84
2023-02-19T14:39:31.614Z,100196.00
2023-02-19T14:42:05.582Z,100198.42
2023-02-19T14:44:46.138Z,100198.70
2023-02-19T14:47:19.144Z,100210.85
2023-02-19T14:49:53.926Z,100210.22
2023-02-19T14:52:45.774Z,100217.00
2023-02-19T14:55:12.103Z,100223.67
2023-02-19T14:57:41.601Z,100224.91
2023-02-19T15:00:29.668Z,100219.99
2023-02-19T15:02:57.551Z,100216.58
2023-02-19T15:05:25.384Z,100217.73
2023-02-19T15:07:54.870Z,100216.02
2023-02-19T15:10:21.895Z,100207.85
2023-02-19T15:12:58.873Z,100210.73
2023-02-19T15:15:28.846Z,100206.77
2023-02-19T15:17:57.572Z,100210.33
2023-02-19T15:20:29.122Z,100211.07
2023-02-19T15:22:56.315Z,100202.34
2023-02-19T15:25:27.058Z,100201.16
2023-02-19T15:27:53.649Z,100195.39
2023-02-19T15:30:25.919Z,100202.40
2023-02-19T15:32:58.300Z,100199.07
2023-02-19T15:35:27.631Z,100196.64
2023-02-19T15:37:54.929Z,100190.00
2023-02-19T15:40:29.280Z,100195.09
2023-02-19T15:42:56.486Z,100194.58
2023-02-19T15:45:40.656Z,100202.84
2023-02-19T15:48:12.728Z,100210.38
2023-02-19T15:50:45.879Z,100208.63
2023-02-19T15:53:28.736Z,100221.77
2023-02-19T15:56:04.010Z,100240.70
2023-02-19T15:58:41.690Z,100244.73
2023-02-19T16:01:23.286Z,100247.20
2023-02-19T16:03:49.814Z,100258.42
2023-02-19T16:06:17.935Z,100260.88
2023-02-19T16:09:05.314Z,100261.06
2023-02-19T16:11:52.824Z,100259.31
2023-02-19T16:14:38.687Z,100266.85
2023-02-19T16:17:11.133Z,100266.14
2023-02-19T16:19:52.555Z,100263.70
2023-02-19T16:22:22.474Z,100264.37
2023-02-19T16:24:53.369Z,100264.04
2023-02-19T16:27:33.061Z,100263.70
2023-02-19T16:30:06.443Z,100263.52
2023-02-19T16:32:33.006Z,100267.02
2023-02-19T16:34:59.600Z,100263.86
2023-02-19T16:37:36.607Z,100266.48
2023-02-19T16:40:08.923Z,100270.86
2023-02-19T16:43:24.473Z,100269.10
2023-02-19T16:45:51.089Z,100277.86
2023-02-19T16:48:20.997Z,100287.67
2023-02-19T16:50:47.462Z,100281.71
2023-02-19T16:53:20.071Z,100277.52
2023-02-19T16:55:47.393Z,100281.72
2023-02-19T16:58:14.013Z,100276.81
2023-02-19T17:00:40.553Z,100282.59
2023-02-19T17:03:10.652Z,100287.31
2023-02-19T17:05:37.978Z,100289.06
2023-02-19T17:08:19.897Z,100294.98
2023-02-19T17:10:46.521Z,100306.69
2023-02-19T17:13:12.954Z,100311.05
2023-02-19T17:15:39.437Z,100314.00
2023-02-19T17:18:05.918Z,100319.60
2023-02-19T17:20:34.467Z,100326.58
2023-02-19T17:23:00.948Z,100326.73
2023-02-19T17:25:27.964Z,100331.26
2023-02-19T17:27:54.488Z,100330.39
2023-02-19T17:30:27.602Z,100327.58
2023-02-19T17:32:54.168Z,100334.56
2023-02-19T17:35:21.548Z,100338.41
2023-02-19T17:37:48.057Z,100348.55
2023-02-19T17:40:33.419Z,100353.79
2023-02-19T17:43:01.405Z,100354.30
2023-02-19T17:45:28.386Z,100345.23
2023-02-19T17:47:54.893Z,100339.63
2023-02-19T17:50:23.629Z,100355.70
2023-02-19T17:52:50.399Z,100363.73
2023-02-19T17:55:18.154Z,100374.39
2023-02-19T17:57:49.517Z,100378.92
2023-02-19T18:00:18.705Z,100381.36
2023-02-19T18:02:45.276Z,100384.33
2023-02-19T18:05:12.106Z,100385.38
2023-02-19T18:07:38.846Z,100382.77
2023-02-19T18:10:06.786Z,100378.59
2023-02-19T18:12:33.360Z,100378.57
2023-02-19T18:14:59.958Z,100389.23
2023-02-19T18:17:26.703Z,100389.38
2023-02-19T18:19:53.942Z,100397.77
2023-02-19T18:22:20.515Z,100411.56
2023-02-19T18:24:48.480Z,100417.67
2023-02-19T18:27:16.106Z,100423.08
2023-02-19T18:29:42.637Z,100428.48
2023-02-19T18:32:09.309Z,100427.95
2023-02-19T18:34:35.893Z,100435.45
2023-02-19T18:37:02.417Z,100446.95
2023-02-19T18:39:32.565Z,100439.96
2023-02-19T18:41:59.086Z,100445.20
2023-02-19T18:44:25.544Z,100451.82
2023-02-19T18:46:52.797Z,100458.45
2023-02-19T18:49:19.894Z,100458.80
2023-02-19T18:51:46.990Z,100465.92
2023-02-19T18:54:13.722Z,100463.29
2023-02-19T18:56:41.716Z,100465.38
2023-02-19T18:59:08.210Z,100469.21
2023-02-19T19:01:34.863Z,100481.58
2023-02-19T19:04:01.477Z,100475.09
2023-02-19T19:06:31.015Z,100476.11
2023-02-19T19:08:57.598Z,100477.82
2023-02-19T19:11:25.394Z,100476.39
2023-02-19T19:13:52.097Z,100473.92
2023-02-19T19:16:18.652Z,100465.50
2023-02-19T19:18:47.302Z,100461.11
2023-02-19T19:21:14.692Z,100455.64
2023-02-19T19:23:41.219Z,100452.64
2023-02-19T19:26:07.875Z,100448.56
2023-02-19T19:28:34.386Z,100450.27
2023-02-19T19:31:01.077Z,100456.31
2023-02-19T19:33:28.100Z,100454.91
2023-02-19T19:35:54.744Z,100466.03
2023-02-19T19:38:21.248Z,100478.07
2023-02-19T19:40:47.784Z,100488.69
2023-02-19T19:43:14.312Z,100503.48
2023-02-19T19:45:40.813Z,100510.96
2023-02-19T19:48:07.457Z,100517.90
2023-02-19T19:50:33.923Z,100533.92
2023-02-19T19:53:00.404Z,100547.88
2023-02-19T19:55:26.899Z,100555.52
2023-02-19T19:57:53.408Z,100564.38
2023-02-19T20:00:20.704Z,100571.20
2023-02-19T20:02:47.262Z,100585.70
2023-02-19T20:05:14.898Z,100590.41
2023-02-19T20:07:41.476Z,100597.92
2023-02-19T20:10:08.661Z,100599.16
2023-02-19T20:12:35.129Z,100604.59
2023-02-19T20:15:01.641Z,100614.20
2023-02-19T20:17:28.291Z,100617.35
2023-02-19T20:19:54.921Z,100623.98
2023-02-19T20:22:21.523Z,100625.02
2023-02-19T20:24:52.202Z,100627.27
2023-02-19T20:27:20.915Z,100624.28
2023-02-19T20:29:47.637Z,100627.73
2023-02-19T20:32:15.832Z,100630.28
2023-02-19T20:34:42.323Z,100624.44
2023-02-19T20:37:08.865Z,100625.77
2023-02-19T20:39:35.871Z,100630.09
2023-02-19T20:42:02.422Z,100636.67
2023-02-19T20:44:29.251Z,100640.28
2023-02-19T20:46:57.428Z,100630.81
2023-02-19T20:49:26.675Z,100639.82
2023-02-19T20:51:56.651Z,100634.87
2023-02-19T20:54:26.367Z,100637.02
2023-02-19T20:56:54.988Z,100644.92
2023-02-19T20:59:25.347Z,100648.77
2023-02-19T21:01:51.900Z,100662.25
2023-02-19T21:04:19.208Z,100657.94
2023-02-19T21:06:46.021Z,100664.96
2023-02-19T21:09:12.892Z,100668.66
2023-02-19T21:11:39.364Z,100673.95
2023-02-19T21:14:05.849Z,100675.07
2023-02-19T21:16:32.543Z,100677.92
2023-02-19T21:18:59.652Z,100683.23
2023-02-19T21:21:26.436Z,100687.81
2023-02-19T21:23:57.679Z,100689.13
2023-02-19T21:26:24.732Z,100694.95
2023-02-19T21:28:51.785Z,100694.65
2023-02-19T21:31:19.139Z,100698.36
2023-02-19T21:33:46.081Z,100695.23
2023-02-19T21:36:13.887Z,100703.91
2023-02-19T21:38:40.523Z,100702.52
2023-02-19T21:41:06.996Z,100701.48
2023-02-19T21:43:33.487Z,100698.02
2023-02-19T21:46:00.049Z,100700.15
2023-02-19T21:48:26.649Z,100695.50
2023-02-19T21:50:53.134Z,100698.33
2023-02-19T21:53:19.594Z,100699.28
2023-02-19T21:55:56.630Z,100710.34
2023-02-19T21:58:25.444Z,100716.61
2023-02-19T22:00:51.953Z,100723.27
2023-02-19T22:03:18.458Z,100728.90
2023-02-19T22:05:44.979Z,100736.96
2023-02-19T22:08:11.509Z,100742.75
2023-02-19T22:10:38.044Z,100751.00
2023-02-19T22:13:04.529Z,100763.80
2023-02-19T22:15:31.018Z,100773.30
2023-02-19T22:17:57.490Z,100783.89
2023-02-19T22:20:23.935Z,100785.92
2023-02-19T22:22:50.406Z,100787.45
2023-02-19T22:25:16.955Z,100796.56
2023-02-19T22:27:43.493Z,100799.29
2023-02-19T22:30:10.810Z,100810.17
2023-02-19T22:32:37.452Z,100822.64
2023-02-19T22:35:04.062Z,100822.91
2023-02-19T22:37:30.542Z,100831.67
2023-02-19T22:39:57.014Z,100828.80
2023-02-19T22:42:23.528Z,100836.73
2023-02-19T22:44:50.014Z,100839.98
2023-02-19T22:47:18.858Z,100842.23
2023-02-19T22:49:45.384Z,100843.61
2023-02-19T22:52:12.598Z,100845.50
2023-02-19T22:54:39.235Z,100853.65
2023-02-19T22:57:05.936Z,100856.23
2023-02-19T22:59:32.430Z,100857.06
2023-02-19T23:01:58.903Z,100866.73
2023-02-19T23:04:25.759Z,100874.52
2023-02-19T23:06:52.431Z,100879.00
2023-02-19T23:09:22.506Z,100883.89
2023-02-19T23:11:49.016Z,100890.86
2023-02-19T23:14:17.652Z,100899.20
2023-02-19T23:16:44.280Z,100900.75
2023-02-19T23:19:14.565Z,100906.30
2023-02-19T23:21:43.913Z,100904.73
2023-02-19T23:24:11.851Z,100904.15
2023-02-19T23:26:43.240Z,100908.29
2023-02-19T23:29:09.690Z,100911.38
2023-02-19T23:31:36.301Z,100916.38
2023-02-19T23:34:03.150Z,100914.91
2023-02-19T23:36:29.613Z,100911.37
2023-02-19T23:38:56.092Z,100909.27
2023-02-19T23:41:22.567Z,100902.65
2023-02-19T23:43:49.092Z,100901.91
2023-02-19T23:46:17.879Z,100907.58
2023-02-19T23:48:45.060Z,100912.70
2023-02-19T23:51:13.023Z,100918.93
2023-02-19T23:53:39.582Z,100921.44
2023-02-19T23:56:06.589Z,100920.63
2023-02-19T23:58:33.094Z,100920.21
